Portada
METAR-TAF:

METAR-TAF

Aeroports :

Cranfield, Anglaterra

latitud: 52-04N, longitud: 000-37W, altitud: 111 m

Observació

L'informe es va fer fa 24 hores i 16 minuts, a les 17:50 UTC
Vent 7 kt del Nord-Est
Temperatura 5°C
Humitat 100%
Pressió 1001 hPa
Visibilitat 10 km o més
Escasses núvols a una alçada de 400 ft
Cel ennuvolat a una alçada de 4200 ft

METAR: EGTC 141750Z 04007KT 9999 FEW004 BKN042 05/05 Q1001

Hora: 18:06 (18:06 UTC)


TAF: manca

Observacions i pronòstics meteorològics de més de 4000 aeroports (METAR i TAF).

Les estacions disponibles són els punts grocs i vermells al mapa.

Posi el ratolí al punt desitjat per veure el nom de l'estació.

Feu clic per veure les observacions i els pronòstics meteorològics.

Per canviar el mapa: feu clic els botons verds amb una creu de color negre per apropar; al botó verd amb un guió per allunyar la imatge; o en les fletxes verdes per a mapes adjacents.


METAR-TAF: